x

9442396 - La Push, Wa (lapw1) Weather Station

9:30 - Thu 27th Nov 2014 All times are PST. -8 hours from GMT.

  • Wind
    16mph, 23mph gusts
  • Sea Temp 50°f
  • Air Temp 55°f
  • Sea Pressure 1008.2mb
  • 9442396 - La Push, Wa
  • 9442396 - La Push, Wa

More Historic Weather Station data

Upgrade to MSW Pro to gain access to the past 30 days of data for over 8000 Wavebouys and Weather Stations around the globe.

Join Pro

Comparision Forecast

View Surf forecast
   
jeu. 11/27 9:30 16 23 mph 1008.2mb 50f 55f
9:24 14 22 mph 1008.3mb 50f 55f
9:18 18 24 mph 1008.3mb 50f 55f
9:12 15 23 mph 1008.4mb 50f 55f
9:06 15 21 mph 1008.5mb 50f 55f
9:00 14 20 mph 1008.6mb 50f 55f
8:36 15 20 mph 1008.5mb 49f 55f
8:30 14 20 mph 1008.5mb 49f 55f
8:24 15 21 mph 1008.5mb 49f 55f
8:18 15 20 mph 1008.5mb 49f 54f
8:12 13 16 mph 1008.5mb 49f 54f
8:06 14 20 mph 1008.5mb 49f 55f
8:00 11 21 mph 1008.5mb 49f 54f
7:36 15 21 mph 1008.5mb 49f 55f
7:30 17 22 mph 1008.4mb 49f 54f
7:24 13 17 mph 1008.5mb 49f 54f
7:18 13 18 mph 1008.4mb 49f 54f
7:12 14 18 mph 1008.5mb 49f 54f
7:06 14 18 mph 1008.4mb 49f 54f
7:00 15 18 mph 1008.4mb 49f 54f
6:36 14 18 mph 1008.3mb 49f 54f
6:30 15 18 mph 1008.2mb 49f 54f
6:24 13 18 mph 1008.2mb 49f 54f
6:18 14 18 mph 1008.1mb 49f 54f
6:12 15 18 mph 1008.1mb 49f 54f
6:06 13 16 mph 1008.2mb 49f 54f
6:00 13 16 mph 1008.1mb 49f 54f
5:36 15 18 mph 1008mb 49f 54f
5:30 10 15 mph 1008.1mb 49f 54f
5:24 13 16 mph 1008.2mb 49f 54f
5:18 10 17 mph 1008.1mb 49f 54f
5:12 13 17 mph 1008.2mb 49f 54f
5:06 13 16 mph 1008.2mb 49f 54f
5:00 13 18 mph 1008.3mb 49f 54f
4:36 15 18 mph 1008.2mb 50f 55f
4:30 15 22 mph 1008.2mb 50f 54f
4:24 14 16 mph 1008.2mb 50f 55f
4:18 13 21 mph 1008.2mb 51f 54f
4:12 11 23 mph 1008.3mb 51f 55f
4:06 14 21 mph 1008.2mb 51f 55f
4:00 17 22 mph 1008.3mb 51f 55f
3:36 13 18 mph 1008.3mb 51f 54f
3:30 15 21 mph 1008.4mb 51f 54f
3:24 14 20 mph 1008.5mb 51f 55f
3:18 14 20 mph 1008.6mb 51f 55f
3:12 15 22 mph 1008.7mb 51f 55f
3:06 15 21 mph 1008.7mb 51f 55f
3:00 14 22 mph 1008.8mb 51f 55f
2:36 15 20 mph 1009mb 50f 55f
2:30 14 20 mph 1009mb 49f 55f
2:24 13 17 mph 1009.1mb 49f 55f
2:18 13 16 mph 1009.1mb 49f 55f
2:12 13 16 mph 1009.2mb 49f 54f
2:06 11 14 mph 1009.2mb 49f 55f
2:00 14 15 mph 1009.2mb 49f 55f
1:36 11 15 mph 1009.3mb 49f 54f
1:30 14 16 mph 1009.2mb 49f 54f
1:24 15 17 mph 1009.3mb 49f 55f
1:18 14 18 mph 1009.3mb 49f 54f
1:12 15 18 mph 1009.3mb 49f 55f
1:06 14 17 mph 1009.3mb 49f 54f
1:00 13 17 mph 1009.4mb 49f 54f
12:36 16 21 mph 1009.4mb 49f 54f
12:30 16 20 mph 1009.4mb 49f 55f
12:24 15 22 mph 1009.5mb 49f 55f
12:18 17 22 mph 1009.4mb 49f 55f
12:12 15 22 mph 1009.4mb 49f 54f
12:06 16 22 mph 1009.4mb 49f 54f
12:00 16 21 mph 1009.4mb 49f 54f
mer. 11/26 11:36 14 23 mph 1009.2mb 49f 55f
11:30 22 31 mph 1009.2mb 49f 54f
11:24 15 23 mph 1009mb 49f 54f
11:18 20 29 mph 1009mb 49f 54f
11:12 20 28 mph 1008.8mb 49f 54f
11:06 20 26 mph 1008.8mb 48f 55f
11:00 20 30 mph 1008.6mb 48f 55f
10:36 24 32 mph 1008.4mb 48f 55f
10:30 25 36 mph 1008.5mb 48f 55f
10:24 18 32 mph 1008.6mb 48f 55f
10:18 23 37 mph 1008.5mb 48f 54f
10:12 22 34 mph 1008.4mb 48f 54f
10:06 20 29 mph 1008.3mb 48f 54f
10:00 16 34 mph 1008.3mb 48f 54f
9:36 20 31 mph 1008.5mb 48f 55f
9:30 20 30 mph 1008.4mb 48f 55f
9:24 20 34 mph 1008.5mb 48f 55f
9:18 20 37 mph 1008.6mb 48f 55f
9:12 20 32 mph 1008.6mb 48f 55f
9:06 21 32 mph 1008.6mb 48f 55f
9:00 21 32 mph 1008.3mb 48f 55f
8:36 21 39 mph 1008.5mb 48f 55f
8:30 22 31 mph 1008.6mb 48f 55f
8:24 20 34 mph 1008.7mb 48f 55f
8:18 17 33 mph 1008.8mb 48f 55f
8:12 17 30 mph 1008.6mb 48f 55f
8:06 18 31 mph 1008.9mb 48f 55f
8:00 21 38 mph 1009.2mb 48f 55f
7:36 18 32 mph 1009.5mb 48f 55f
7:30 15 31 mph 1009.8mb 48f 55f
7:24 20 29 mph 1009.8mb 48f 55f
7:18 18 29 mph 1009.8mb 48f 55f
7:12 18 24 mph 1009.7mb 48f 54f
7:06 14 28 mph 1009.5mb 48f 54f
7:00 15 25 mph 1009.6mb 48f 54f
6:36 14 28 mph 1010.9mb 48f 54f
6:30 15 24 mph 1010.8mb 48f 54f
6:24 22 33 mph 1010.6mb 48f 54f
6:18 17 26 mph 1010.7mb 48f 54f
6:12 21 38 mph 1010.8mb 48f 54f
6:06 18 26 mph 1011.1mb 48f 54f
6:00 16 28 mph 1011.2mb 48f 54f
5:36 13 21 mph 1011.5mb 48f 54f
5:30 13 25 mph 1011.3mb 48f 54f
5:24 11 21 mph 1011.4mb 48f 54f
5:18 15 25 mph 1011.5mb 48f 54f
5:12 14 21 mph - - 54f
5:06 13 26 mph 1012.3mb 48f 54f
5:00 14 24 mph - - 54f
4:36  -  mph 1012mb 48f -
4:24  -  mph 1012.7mb 49f -
4:18  -  mph 1013.1mb 48f -
4:12  -  mph 1013.3mb 49f -
4:06  -  mph 1013.2mb 49f -
4:00  -  mph 1013.3mb 49f -
3:36 10 22 mph 1013.7mb 51f 54f
3:30 8 21 mph 1013.8mb 51f 53f
3:24 11 21 mph 1014.2mb 51f 53f
3:18 14 22 mph 1014.4mb 51f 53f
3:12 14 22 mph 1014.5mb 51f 53f
3:06 14 24 mph 1014.6mb 51f 53f
3:00 15 22 mph 1014.7mb 51f 54f
2:36 10 23 mph 1015.2mb 51f 53f
2:30 10 20 mph 1015.3mb 51f 53f
2:24 17 24 mph 1015.4mb 51f 53f
2:18 15 24 mph 1015.5mb 51f 53f
2:12 15 25 mph 1015.4mb 51f 53f
2:06 15 24 mph 1015.5mb 51f 53f
2:00 14 25 mph - - 53f
1:36 15 22 mph 1016.1mb 51f 53f
1:30 13 24 mph 1016.2mb 51f 53f
1:24 14 22 mph 1015.9mb 51f 53f
1:18 17 24 mph 1015.7mb 51f 53f
1:12 14 24 mph 1015.5mb 50f 53f
1:06 15 24 mph 1015.5mb 50f 53f
1:00 16 24 mph 1015.7mb 50f 53f
12:36 14 23 mph 1016.4mb 48f 53f
12:30 14 23 mph 1016.5mb 48f 53f
12:24 14 26 mph 1016.6mb 48f 53f
12:18 14 25 mph 1016.9mb 48f 53f
12:12 15 23 mph 1017.2mb 48f 53f
12:06 15 25 mph 1017.4mb 48f 53f
12:00 14 26 mph - - 53f
11:36 15 24 mph 1017.3mb 48f 53f
11:30 17 28 mph - - 53f
11:24 15 28 mph 1017.4mb 48f 53f
11:18 16 24 mph 1017.6mb 48f 53f
11:12 16 25 mph 1017.8mb 48f 53f
11:06 14 29 mph 1017.8mb 48f 54f
11:00 16 26 mph 1017.7mb 48f 54f
10:36 15 24 mph 1017.8mb 48f 54f
10:30 17 22 mph 1017.8mb 48f 54f
10:24 16 24 mph 1017.9mb 48f 54f
10:18 16 25 mph 1018mb 48f 54f
10:12 14 25 mph 1017.9mb 48f 54f
10:06 15 25 mph 1017.9mb 48f 54f
10:00 17 29 mph 1017.8mb 48f 54f
9:54 13 24 mph 1017.9mb 48f 54f
9:48 16 25 mph 1017.9mb 48f 54f
9:36 15 30 mph 1018.1mb 48f 54f
9:30 14 22 mph 1018.1mb 48f 54f
9:24 16 25 mph 1018mb 48f 54f
9:18 16 24 mph 1017.8mb 48f 54f
9:12 14 23 mph 1017.8mb 48f 54f
9:06 17 25 mph 1017.7mb 48f 54f
9:00 15 22 mph 1017.8mb 48f 54f
8:54 14 20 mph 1017.8mb 48f 54f
8:48 15 23 mph 1017.9mb 48f 54f
8:36 17 23 mph 1018mb 48f 54f
8:30 15 21 mph 1018.1mb 48f 54f
8:24 10 18 mph 1018mb 48f 54f
8:18 14 24 mph 1018mb 48f 54f
8:12 11 21 mph 1018.2mb 48f 54f
8:06 13 23 mph 1018.2mb 48f 54f
8:00 15 22 mph - - 54f
7:54 10 22 mph 1018.1mb 48f 54f
7:48 14 18 mph 1018.2mb 48f 54f
7:36 14 20 mph 1018.5mb 48f 54f
7:30 14 18 mph 1018.6mb 48f 54f
7:24 14 17 mph 1018.7mb 48f 54f
7:18 13 20 mph 1018.7mb 48f 54f
7:12 14 18 mph 1018.6mb 48f 54f
7:06 11 17 mph 1018.5mb 48f 54f
7:00 14 21 mph 1018.6mb 48f 54f
6:54 11 16 mph 1018.7mb 48f 54f
6:48 13 16 mph 1018.8mb 48f 54f
6:36 10 13 mph 1018.9mb 48f 53f
6:30 10 15 mph 1018.9mb 48f 53f
6:24 13 16 mph 1018.9mb 48f 54f
6:18 13 16 mph 1018.7mb 48f 53f
6:12 14 18 mph 1018.7mb 48f 54f
6:06 14 21 mph 1018.6mb 48f 54f
6:00 14 21 mph 1018.6mb 48f 54f
5:54 14 17 mph 1018.7mb 48f 54f
5:48 14 17 mph 1018.8mb 48f 54f
5:36 14 21 mph 1018.8mb 48f 54f
5:30 14 17 mph 1018.8mb 48f 54f
5:24 13 18 mph 1018.8mb 48f 54f
5:18 15 20 mph 1018.9mb 48f 54f
5:12 14 17 mph 1018.9mb 48f 54f
5:06 13 18 mph 1018.9mb 48f 54f
5:00 13 20 mph 1019mb 48f 54f
4:54 13 18 mph 1019mb 48f 54f
4:48 10 15 mph 1019mb 48f 54f
4:36 14 18 mph 1019.1mb 48f 54f
4:30 14 18 mph 1019.1mb 48f 54f
4:24 11 17 mph 1019.1mb 48f 54f
4:18 13 16 mph 1019mb 48f 54f
4:12 14 17 mph 1019.1mb 48f 54f
4:06 13 18 mph 1019.2mb 48f 54f
4:00 15 20 mph 1019.3mb 48f 54f
3:54 14 18 mph 1019.2mb 48f 55f
3:48 13 17 mph 1019.4mb 48f 54f
3:36 11 16 mph 1019.7mb 48f 54f
3:30 11 16 mph 1019.8mb 48f 54f
3:24 13 20 mph 1019.8mb 48f 54f
3:18 10 15 mph 1020mb 49f 54f
3:12 8 14 mph 1020mb 48f 55f
3:06 8 16 mph 1020mb 49f 54f
3:00 9 16 mph 1020.2mb 49f 54f
2:54 13 17 mph 1020.1mb 49f 54f
2:48 10 14 mph 1020.1mb 49f 54f
2:36 9 17 mph 1020.1mb 49f 54f
2:30 11 17 mph 1020.1mb 49f 54f
2:24 11 17 mph 1020.2mb 49f 54f
2:18 13 16 mph 1020.2mb 48f 54f
2:12 13 15 mph 1020.3mb 48f 54f
2:06 9 15 mph 1020.2mb 48f 54f
2:00 8 11 mph 1020.3mb 48f 54f
1:54 9 13 mph 1020.4mb 48f 54f
1:48 9 14 mph 1020.5mb 48f 54f
1:36 10 14 mph 1020.5mb 48f 54f
1:30 9 13 mph 1020.5mb 48f 54f
1:24 11 14 mph 1020.5mb 48f 54f
1:18 9 14 mph 1020.5mb 48f 54f
1:12 9 14 mph 1020.6mb 48f 54f
1:06 11 15 mph 1020.7mb 48f 54f
1:00 10 14 mph 1020.7mb 48f 54f
12:54 10 13 mph 1020.8mb 48f 54f
12:48 10 14 mph 1020.7mb 47f 54f
12:36 11 14 mph 1020.6mb 47f 54f
12:30 10 16 mph 1020.6mb 47f 54f
12:24 11 15 mph 1020.6mb 47f 54f
12:18 11 15 mph 1020.6mb 47f 54f
12:12 13 16 mph 1020.7mb 47f 54f
12:06 9 14 mph 1021mb 47f 54f
12:00 10 14 mph 1021.1mb 47f 54f
mar. 11/25 11:54 10 14 mph 1021.2mb 48f 54f
11:48 10 13 mph 1021.1mb 48f 54f
11:36 9 13 mph 1020.9mb 47f 54f
11:30 10 15 mph 1020.8mb 47f 54f
11:24 11 16 mph 1020.9mb 47f 54f
11:18 13 16 mph 1020.9mb 47f 54f
11:12 11 14 mph 1020.9mb 47f 54f
11:06 10 15 mph 1020.8mb 47f 54f
11:00 10 15 mph 1020.9mb 47f 54f
10:54 10 14 mph 1020.9mb 47f 53f
10:48 8 11 mph 1020.9mb 47f 53f
10:36 8 11 mph 1021mb 47f 53f
10:30 8 10 mph 1020.9mb 47f 53f
10:24 7 11 mph 1020.9mb 47f 54f
10:18 7 11 mph 1020.8mb 47f 54f
10:12 8 10 mph 1020.7mb 47f 54f
10:06 9 11 mph 1020.8mb 47f 54f
10:00 10 14 mph 1020.7mb 47f 54f
9:54 10 13 mph 1020.7mb 47f 54f
9:48 8 10 mph 1020.8mb 47f 54f
9:36 8 11 mph 1020.8mb 47f 53f
9:30 7 10 mph 1020.8mb 47f 53f
9:24 7 10 mph 1020.7mb 47f 53f
9:18 7 9 mph 1020.8mb 47f 53f
9:12 6 9 mph 1020.9mb 47f 54f
9:06 7 9 mph 1020.7mb 47f 54f
9:00 8 11 mph 1020.7mb 47f 54f
8:54 8 13 mph 1020.8mb 47f 54f
8:48 11 17 mph 1020.7mb 47f 54f
8:36 9 18 mph 1020.6mb 47f 54f
8:30 9 18 mph 1020.6mb 47f 54f
8:24 11 21 mph 1020.5mb 47f 54f
8:18 10 18 mph 1020.5mb 47f 54f
8:12 10 15 mph 1020.5mb 47f 54f
8:06 11 15 mph 1020.6mb 47f 54f
8:00 11 14 mph 1020.6mb 47f 55f
7:54 10 13 mph 1020.6mb 47f 55f
7:48 11 15 mph 1020.7mb 47f 55f
7:36 10 15 mph 1020.7mb 47f 55f
7:30 11 15 mph 1020.7mb 47f 55f
7:24 11 15 mph 1020.6mb 47f 55f
7:18 10 14 mph 1020.5mb 47f 55f
7:12 10 15 mph 1020.4mb 47f 55f
7:06 11 14 mph 1020.4mb 47f 54f
7:00 10 14 mph 1020.4mb 47f 54f
6:54 10 13 mph 1020.4mb 47f 54f
6:48 11 15 mph 1020.4mb 47f 54f
6:36 10 13 mph 1020.7mb 47f 54f
6:30 11 15 mph 1020.8mb 47f 54f
6:24 10 14 mph 1020.7mb 47f 53f
6:18 11 21 mph 1020.9mb 47f 54f
6:12 13 18 mph 1020.9mb 47f 54f
6:06 13 21 mph 1020.9mb 47f 54f
6:00 14 20 mph 1020.8mb 47f 54f
5:54 13 16 mph 1020.9mb 47f 54f
5:48 13 16 mph 1020.9mb 47f 54f
5:36 10 14 mph 1020.9mb 47f 54f
5:30 10 18 mph 1020.8mb 47f 55f
5:24 14 22 mph 1020.9mb 47f 54f
5:18 13 22 mph 1020.9mb 47f 54f
5:12 10 14 mph 1021mb 47f 54f
5:06 11 14 mph 1020.9mb 47f 54f
5:00 10 18 mph 1020.8mb 47f 54f
4:54 13 15 mph 1020.8mb 47f 54f
4:48 13 20 mph 1020.8mb 47f 54f
4:36 15 21 mph 1021mb 47f 54f
4:30 10 16 mph 1021.1mb 47f 54f
4:24 11 16 mph 1021mb 47f 54f
4:18 13 15 mph 1020.9mb 47f 54f
4:12 13 18 mph 1020.9mb 47f 53f
4:06 11 15 mph 1020.8mb 47f 54f
4:00 13 14 mph 1020.8mb 48f 53f
3:54 9 14 mph 1020.9mb 48f 54f
3:48 11 16 mph 1020.9mb 48f 54f
3:36 11 16 mph 1020.9mb 49f 54f
3:30 11 17 mph 1020.8mb 49f 54f
3:24 11 17 mph 1020.8mb 50f 54f
3:18 13 17 mph 1020.7mb 50f 54f
3:12 14 18 mph 1020.7mb 51f 54f
3:06 14 17 mph 1020.8mb 51f 54f
3:00 13 16 mph 1020.8mb 51f 54f
2:54 11 15 mph 1020.9mb 52f 54f
2:48 13 16 mph 1020.8mb 52f 54f
2:36 14 17 mph 1020.8mb 52f 54f
2:30 13 17 mph 1020.9mb 52f 54f
2:24 13 18 mph 1020.8mb 52f 54f
2:18 13 16 mph 1020.8mb 52f 54f
2:12 13 17 mph 1020.8mb 52f 54f
2:06 14 18 mph 1020.8mb 52f 54f
2:00 14 18 mph 1020.8mb 52f 54f
1:54 13 18 mph 1020.8mb 52f 54f
1:48 15 18 mph 1020.7mb 52f 54f
1:36 15 22 mph 1020.7mb 52f 54f
1:30 14 18 mph 1020.8mb 52f 55f
1:24 14 17 mph 1020.7mb 52f 55f
1:18 13 18 mph 1020.7mb 52f 55f
1:12 14 17 mph 1020.8mb 52f 54f
1:06 14 18 mph 1020.9mb 52f 54f
1:00 10 18 mph 1021mb 52f 54f
12:54 9 17 mph 1021mb 52f 54f
12:48 10 16 mph 1021mb 52f 54f
12:36 9 17 mph 1021mb 52f 53f
12:30 9 18 mph 1021mb 52f 53f
12:24 10 16 mph 1021mb 52f 52f
12:18 13 18 mph 1021mb 52f 52f
12:12 9 15 mph 1021.1mb 52f 51f
12:06 6 11 mph 1021.2mb 52f 51f
12:00 2 14 mph 1021.3mb 52f 51f
11:54 6 11 mph 1021.3mb 51f 51f
11:48 8 15 mph 1021.3mb 51f 50f
11:36 7 13 mph 1021.5mb 51f 50f
11:30 5 13 mph 1021.6mb 51f 50f
11:24 6 10 mph 1021.6mb 51f 50f
11:18 3 8 mph 1021.7mb 51f 50f
11:12 8 10 mph 1021.8mb 50f 50f
11:06 3 7 mph 1021.8mb 50f 50f
11:00 3 6 mph 1021.8mb 49f 50f
10:54 3 5 mph 1021.9mb 48f 50f
10:48 2 5 mph 1022.1mb 47f 50f
10:36 3 5 mph 1022.2mb 46f 50f
10:30 2 3 mph 1022.3mb 46f 50f
10:24 2 3 mph 1022.4mb 46f 50f
10:18 2
mph
1022.5mb 46f 50f
10:12 1 2 mph 1022.4mb 46f 50f
10:06 2 3 mph 1022.3mb 46f 49f
10:00 2
mph
1022.4mb 46f 49f
9:54 1 3 mph 1022.4mb 46f 49f
9:48 2 3 mph 1022.2mb 46f 49f
9:36 2 3 mph 1022.2mb 46f 49f
9:30 2
mph
1022.1mb 46f 49f
9:24 2 3 mph 1022.1mb 46f 49f
9:18 2 3 mph 1022.1mb 46f 49f
9:12 2 3 mph 1022mb 46f 49f
9:06 2
mph
1021.9mb 46f 49f
9:00 2 3 mph 1021.7mb 46f 49f
8:54 1 3 mph 1021.7mb 46f 49f
8:48 2 3 mph 1021.6mb 46f 49f
8:36 2 3 mph 1021.6mb 46f 49f
8:30 3
mph
1021.8mb 46f 49f
8:24 2
mph
1022mb 46f 49f
8:18 2
mph
1022mb 46f 49f
8:12 2 3 mph 1021.9mb 46f 49f
8:06 2
mph
1021.7mb 46f 49f
8:00 1 2 mph 1021.6mb 46f 49f
7:54 1 2 mph 1021.5mb 46f 49f
7:48 2
mph
1021.4mb 46f 49f
7:36 1 3 mph 1021.5mb 46f 49f
7:30 2
mph
1021.5mb 46f 49f
7:24 2
mph
1021.6mb 46f 49f
7:18 2
mph
1021.7mb 46f 49f
7:12 1
mph
1021.8mb 46f 49f
7:06 1 2 mph 1021.7mb 46f 49f
7:00  -  1 mph 1021.7mb 46f 49f
6:54 1
mph
1021.7mb 46f 49f
6:48 1 2 mph 1021.7mb 46f 49f
6:36  -  1 mph 1021.8mb 46f 49f
6:30  -  mph 1021.8mb 46f 49f
6:24  -  mph 1021.8mb 46f 49f
6:18  -  1 mph 1021.7mb 46f 49f
6:12  -  1 mph 1021.6mb 46f 49f
6:06  -  mph 1021.6mb 46f 49f
6:00  -  1 mph 1021.6mb 46f 49f
5:54  -  1 mph 1021.5mb 46f 49f
5:48 1 2 mph 1021.5mb 46f 49f
5:36 1 2 mph 1021.7mb 46f 49f
5:30 1 2 mph 1021.6mb 47f 49f
5:24  -  1 mph 1021.4mb 47f 49f
5:18  -  1 mph 1021.3mb 47f 49f
5:12  -  1 mph 1021.3mb 47f 49f
5:06  -  2 mph 1021.3mb 47f 49f
5:00 1 3 mph 1021.4mb 47f 49f
4:54 5 6 mph 1021.5mb 47f 49f
4:48 5 6 mph 1021.4mb 47f 49f
4:36 5 6 mph 1020.9mb 48f 51f
4:30 2
mph
1020.8mb 48f 51f
4:24 2
mph
1020.8mb 48f 51f
4:18 1 2 mph 1020.8mb 49f 51f
4:12 1 2 mph 1020.7mb 49f 51f
4:06  -  1 mph 1020.8mb 49f 51f
4:00 1
mph
1020.8mb 50f 51f
3:54 2
mph
1020.9mb 50f 51f
3:48 1 2 mph 1020.9mb 51f 51f
3:36 2 3 mph 1020.9mb 51f 51f
3:30 2 3 mph 1021mb 51f 52f
3:24 1 2 mph 1021.1mb 51f 52f
3:18 2 3 mph 1021.2mb 52f 52f
3:12 3
mph
1021.2mb 51f 52f
3:06 3 5 mph 1021mb 51f 52f
3:00 5 7 mph 1021.2mb 52f 52f
2:54 3 6 mph 1021.1mb 52f 52f
2:48 2 3 mph 1021.1mb 52f 52f
2:36 3 6 mph 1021.1mb 52f 52f
2:30 6 9 mph 1021.2mb 52f 52f
2:24 7 9 mph 1021.5mb 52f 52f
2:18 6 8 mph 1021.4mb 52f 52f
2:12 6 7 mph 1021.4mb 52f 52f
2:06 5 7 mph 1021.3mb 52f 52f
2:00 5 7 mph 1021.3mb 52f 52f
1:54 6 7 mph 1021.2mb 52f 52f
1:48 5 7 mph 1021.1mb 51f 52f
1:36 7 9 mph 1021.3mb 52f 52f
1:30 7 10 mph 1021.2mb 52f 52f
1:24 7 9 mph 1021.2mb 51f 52f
1:18 7 9 mph 1021.2mb 51f 52f
1:12 9 11 mph 1021.2mb 51f 52f
1:06 10 13 mph 1021.2mb 51f 52f
1:00 9 14 mph 1021mb 51f 52f
12:54 9 13 mph 1021mb 51f 52f
12:48 9 11 mph 1021mb 51f 52f
12:36 8 14 mph 1020.7mb 51f 52f
12:30 10 15 mph 1020.8mb 51f 53f
12:24 10 13 mph 1020.9mb 50f 53f
12:18 9 13 mph 1020.9mb 50f 53f
12:12 9 13 mph 1020.9mb 49f 53f
12:06 9 11 mph 1020.6mb 49f 53f
12:00 9 13 mph 1020.3mb 48f 53f
lun. 11/24 11:54 8 13 mph 1020.3mb 47f 53f
11:48 10 16 mph 1020.3mb 46f 53f
11:36 15 18 mph 1020.2mb 46f 53f
11:30 13 18 mph 1020mb 46f 53f
11:24 15 20 mph 1019.9mb 46f 53f
11:18 16 21 mph 1019.9mb 46f 53f
11:12 15 20 mph 1020mb 46f 54f
11:06 10 14 mph 1019.8mb 46f 53f
11:00 8 11 mph 1019.7mb 46f 53f
10:54 7 11 mph 1019.7mb 46f 53f
10:48 7 13 mph 1019.7mb 46f 53f
10:36 8 14 mph 1019.6mb 46f 53f
10:30 7 10 mph 1019.3mb 46f 53f
10:24 9 14 mph 1019.4mb 46f 53f
10:18 10 15 mph 1019.4mb 46f 53f
10:12 8 11 mph 1019.5mb 46f 53f
10:06 6 10 mph 1019.4mb 46f 53f
10:00 5 9 mph 1019.2mb 46f 53f
9:54 7 11 mph 1019.4mb 46f 53f
9:48 6 8 mph 1019.4mb 46f 53f
9:36 6 8 mph 1018.9mb 46f 53f
9:30 6 11 mph 1019.1mb 46f 53f
9:24 7 11 mph 1019.1mb 46f 54f
9:18 8 13 mph 1019mb 46f 54f
9:12 9 13 mph 1018.9mb 46f 53f
9:06 9 15 mph 1018.7mb 46f 54f
9:00 11 15 mph 1018.8mb 46f 53f
8:54 11 17 mph 1018.8mb 46f 54f
8:48 13 18 mph 1018.7mb 46f 54f
8:36 9 15 mph 1018.4mb 46f 54f
8:30 9 14 mph 1018.4mb 46f 54f
8:24 10 14 mph 1018.4mb 46f 54f
8:18 11 15 mph 1018.5mb 46f 54f
8:12 10 14 mph 1018.4mb 45f 54f
8:06 9 13 mph 1018.2mb 45f 54f
8:00 9 13 mph 1018.2mb 45f 54f
7:54 11 15 mph 1018.2mb 45f 54f
7:48 13 15 mph 1018.2mb 45f 54f
7:36 14 21 mph 1018mb 45f 55f
7:30 14 22 mph 1017.9mb 45f 55f
7:24 18 22 mph 1017.9mb 45f 55f
7:18 9 16 mph 1017.7mb 46f 55f
7:12 11 16 mph 1017.9mb 45f 55f
7:06 11 18 mph 1017.8mb 45f 55f
7:00 15 20 mph 1017.7mb 45f 55f
6:54 14 17 mph 1017.6mb 45f 55f
6:48 8 13 mph 1017.5mb 45f 54f
6:36 11 16 mph 1017.5mb 45f 53f
6:30 8 16 mph 1017.5mb 45f 53f
6:24 10 18 mph 1017.4mb 45f 52f
6:18 10 21 mph 1017.5mb 45f 52f
6:12 13 21 mph 1017.5mb 45f 52f
6:06 13 24 mph 1017.6mb 45f 52f
6:00 17 28 mph 1017.6mb 45f 51f
5:54 14 22 mph 1017.6mb 45f 51f
5:48 15 26 mph 1017.6mb 45f 51f
5:36 18 29 mph 1017.6mb 45f 51f
5:30 16 25 mph 1017.5mb 45f 51f
5:24 15 25 mph 1017.6mb 45f 51f
5:18 16 29 mph 1017.6mb 45f 51f
5:12 17 26 mph 1017.6mb 45f 51f
5:06 14 26 mph 1017.5mb 45f 51f
5:00 15 29 mph 1017.5mb 45f 51f
4:54 15 24 mph 1017.5mb 45f 51f
4:48 16 25 mph 1017.6mb 45f 51f
4:36 15 25 mph 1017.8mb 45f 50f
4:30 15 29 mph 1018mb 45f 50f
4:24 15 26 mph 1018.1mb 46f 50f
4:18 13 21 mph 1017.9mb 46f 50f
4:12 17 28 mph 1017.9mb 46f 50f
4:06 15 25 mph 1018.1mb 46f 50f
4:00 11 26 mph 1018.3mb 46f 50f
3:54 11 22 mph 1018.4mb 46f 50f
3:48 10 30 mph 1018.4mb 46f 50f
3:36 15 28 mph - - 50f
3:30 16 29 mph 1018.8mb 47f 50f
3:24 17 28 mph 1018.9mb 48f 50f
3:18 20 32 mph 1018.8mb 48f 51f
3:12 15 28 mph 1018.8mb 49f 51f
3:06 18 30 mph 1018.9mb 49f 51f
3:00 15 24 mph 1018.9mb 50f 51f
2:54 16 26 mph 1019mb 50f 51f
2:48 11 21 mph 1019.1mb 50f 51f
2:36 15 25 mph 1019.1mb 51f 51f
2:30 15 25 mph 1019.2mb 51f 51f
2:24 13 31 mph 1019.3mb 52f 51f
2:18 17 31 mph 1019.3mb 52f 51f
2:12 17 32 mph 1019.4mb 52f 51f
2:06 15 26 mph 1019.6mb 52f 51f
2:00 18 30 mph 1019.8mb 52f 51f
1:54 14 25 mph 1020.2mb 52f 51f
1:48 16 26 mph 1020.5mb 52f 51f
1:36 14 24 mph 1020.6mb 52f 51f
1:30 14 20 mph 1020.3mb 52f 51f
1:24 16 29 mph 1020.4mb 52f 51f
1:18 15 24 mph 1020.6mb 52f 51f
1:12 16 28 mph 1021mb 52f 51f
1:06 14 26 mph 1021.1mb 52f 51f
1:00 16 24 mph 1021.3mb 52f 51f
12:54 14 23 mph 1021.5mb 52f 51f
12:48 13 23 mph 1021.7mb 52f 51f
12:36 11 21 mph 1022.3mb 52f 51f
12:30 14 23 mph 1022.4mb 52f 51f
12:24 13 22 mph 1022.5mb 52f 51f
12:18 13 23 mph 1022.5mb 52f 52f
12:12 17 25 mph 1022.5mb 52f 51f
12:06 13 25 mph 1022.7mb 52f 52f
12:00 16 26 mph 1022.6mb 52f 51f
11:54 14 18 mph 1022.6mb 52f 51f
11:48 16 30 mph 1022.4mb 52f 51f
11:36 10 22 mph 1022.5mb 52f 51f
11:30 11 21 mph 1022.7mb 52f 51f
11:24 16 24 mph 1022.7mb 52f 51f
11:18 18 26 mph 1022.6mb 52f 52f
11:12 16 23 mph 1022.6mb 52f 51f
11:06 15 24 mph 1022.7mb 52f 52f
11:00 13 26 mph 1023mb 52f 52f
10:54 13 29 mph 1022.9mb 52f 52f
10:48 14 25 mph 1023.1mb 52f 52f
10:36 14 21 mph 1023.4mb 52f 51f
10:30 16 23 mph 1023.3mb 51f 52f
10:24 14 28 mph 1023.4mb 51f 52f
10:18 14 22 mph 1023.5mb 51f 52f
10:12 16 22 mph 1023.6mb 50f 52f
10:06 15 21 mph 1023.7mb 50f 52f
10:00 13 21 mph 1023.5mb 49f 52f
9:54 13 23 mph 1023.6mb 48f 52f
9:48 10 18 mph 1023.6mb 47f 51f
9:36 10 20 mph 1023.5mb 46f 51f
9:30 13 23 mph 1023.7mb 45f 51f
9:24 13 23 mph 1023.9mb 45f 51f
9:18 11 22 mph 1024.2mb 45f 51f
9:12 13 22 mph 1024.2mb 45f 51f
9:06 11 22 mph 1024.1mb 45f 51f
9:00 10 24 mph 1024.1mb 45f 51f
8:54 11 22 mph 1023.9mb 45f 51f
8:48 15 22 mph 1023.6mb 45f 51f
8:36 9 17 mph 1024mb 45f 51f
8:30 14 22 mph 1023.9mb 45f 50f
8:24 11 17 mph 1024mb 45f 50f
8:18 7 14 mph 1024mb 45f 49f
8:12 6 14 mph 1024.1mb 45f 49f
8:06 7 11 mph 1024.2mb 45f 48f
8:00 7 10 mph 1024.1mb 45f 48f
7:54 7 11 mph 1024.1mb 45f 47f
7:48 6 11 mph 1024.1mb 45f 47f
7:36 7 10 mph 1024.3mb 45f 45f
7:30 6 8 mph 1024.2mb 45f 45f
7:24 6 9 mph 1024mb 45f 45f
7:18 6 8 mph 1024.1mb 45f 45f
7:12 6 8 mph 1024mb 45f 44f
7:06 6 8 mph 1024.1mb 45f 44f
7:00 5 8 mph 1024.2mb 45f 44f
6:54 6 8 mph 1024.2mb 45f 44f
6:48 6 7 mph 1024.4mb 45f 44f
6:36 6 8 mph 1024.5mb 46f 43f
6:30 5 8 mph 1024.7mb 46f 43f
6:24 6 8 mph 1024.8mb 46f 43f
6:18 7 9 mph 1024.8mb 46f 43f
6:12 7 8 mph 1024.9mb 46f 42f
6:06 6 8 mph 1024.8mb 46f 42f
6:00 7 8 mph 1024.8mb 46f 42f
5:54 6 7 mph 1025mb 46f 42f
5:48 6 8 mph 1025mb 46f 42f
5:36 6 8 mph 1025.1mb 46f 42f
5:30 7 9 mph 1025.1mb 46f 42f
5:24 6 11 mph 1025.3mb 46f 42f
5:18 7 9 mph 1025.5mb 46f 42f
5:12 6 8 mph 1025.5mb 46f 42f
5:06 6 7 mph 1025.6mb 46f 42f
5:00 6 8 mph 1025.5mb 46f 42f
4:54 7 9 mph 1025.4mb 46f 42f
4:48 7 9 mph 1025.3mb 46f 42f
4:36 7 8 mph 1025.4mb 46f 42f
4:30 7 9 mph 1025.5mb 46f 42f
4:24 7 8 mph 1025.6mb 46f 42f
4:18 6 9 mph 1025.7mb 46f 42f
4:12 7 10 mph 1025.9mb 46f 42f
4:06 7 10 mph 1025.9mb 46f 42f
4:00 7 9 mph 1025.9mb 46f 42f
3:54 6 9 mph 1025.8mb 46f 42f
3:48 7 10 mph 1025.6mb 46f 42f
3:36 8 10 mph 1025.8mb 46f 41f
3:30 7 10 mph 1025.8mb 46f 41f
3:24 8 10 mph 1025.9mb 46f 41f
3:18 8 11 mph 1026mb 46f 41f
3:12 8 10 mph 1026.1mb 46f 42f
3:06 8 10 mph 1026.2mb 46f 42f
3:00 8 11 mph 1026.2mb 47f 42f
2:54 8 10 mph 1026.3mb 47f 42f
2:48 8 9 mph 1026.4mb 47f 42f
2:36 8 10 mph 1026.6mb 47f 42f
2:30 7 11 mph 1026.7mb 48f 42f
2:24 8 11 mph 1026.7mb 48f 42f
2:18 8 10 mph 1026.7mb 49f 42f
2:12 8 9 mph 1026.6mb 49f 42f
2:06 7 10 mph 1026.5mb 50f 42f
2:00 7 10 mph 1026.6mb 50f 42f
1:54 7 9 mph 1026.4mb 51f 42f
1:48 7 10 mph 1026.4mb 51f 42f
1:36 7 11 mph 1026.3mb 50f 42f
1:30 8 9 mph 1026.3mb 50f 42f
1:24 8 10 mph 1026.2mb 50f 42f
1:18 7 10 mph 1026.3mb 50f 42f
1:12 7 10 mph 1026.2mb 50f 42f
1:06 8 10 mph 1026.3mb 50f 42f
1:00 7 10 mph 1026.2mb 50f 42f
12:54 7 9 mph 1026.3mb 49f 42f
12:48 7 9 mph 1026.4mb 49f 42f
12:36 8 10 mph 1026.5mb 48f 42f
12:30 8 10 mph 1026.6mb 48f 42f
12:24 7 9 mph 1026.7mb 47f 42f
12:18 7 10 mph 1026.6mb 46f 42f
12:12 7 9 mph 1026.6mb 46f 42f
12:06 7 9 mph 1026.6mb 46f 42f
12:00 7 9 mph 1026.5mb 46f 42f
dim. 11/23 11:54 7 9 mph 1026.4mb 46f 42f
11:48 7 9 mph 1026.5mb 46f 42f
11:36 7 10 mph 1026.6mb 46f 42f
11:30 7 10 mph 1026.6mb 46f 42f
11:24 7 9 mph 1026.6mb 46f 42f
11:18 7 10 mph 1026.5mb 46f 42f
11:12 7 9 mph 1026.5mb 46f 42f
11:06 7 10 mph 1026.4mb 46f 42f
11:00 7 9 mph 1026.2mb 46f 42f
10:54 8 10 mph 1026mb 46f 42f
10:48 7 10 mph 1026mb 46f 42f
10:36 7 9 mph 1025.9mb 46f 42f
10:30 7 9 mph 1025.9mb 46f 42f
10:24 6 7 mph 1026mb 46f 42f
10:18 6 9 mph 1025.9mb 46f 42f
10:12 7 10 mph 1025.8mb 46f 42f
10:06 7 9 mph 1025.6mb 46f 43f
10:00 7 9 mph 1025.7mb 46f 43f
9:54 8 10 mph 1025.6mb 46f 43f
9:48 7 10 mph 1025.4mb 46f 43f
9:36 5 6 mph 1025.6mb 46f 43f
9:30 5 7 mph 1025.5mb 46f 43f
9:24 5 7 mph 1025.4mb 46f 44f
9:18 6 7 mph 1025.3mb 46f 44f
9:12 6 8 mph 1025.3mb 46f 43f
9:06 5 8 mph 1025.1mb 46f 44f
9:00 7 8 mph 1024.9mb 46f 44f
8:54 7 9 mph 1024.7mb 46f 44f
8:48 7 9 mph 1024.7mb 46f 44f
8:36 7 9 mph 1024.6mb 46f 44f
8:30 7 9 mph 1024.7mb 46f 44f
8:24 6 8 mph 1024.8mb 46f 44f
8:18 7 10 mph 1024.8mb 46f 44f
8:12 7 9 mph 1024.8mb 46f 44f
8:06 7 9 mph 1024.8mb 46f 45f
8:00 7 9 mph 1024.7mb 46f 45f
7:54 8 9 mph 1024.7mb 46f 45f
7:48 7 9 mph 1024.6mb 46f 45f
7:36 7 9 mph 1024.8mb 46f 45f
7:30 7 9 mph 1024.9mb 46f 45f
7:24 7 8 mph 1024.9mb 46f 45f
7:18 7 9 mph 1024.9mb 46f 46f
7:12 2 5 mph 1024.8mb 46f 46f
7:06 3
mph
1024.8mb 46f 46f
7:00 2 5 mph 1024.8mb 46f 46f
6:54 3 5 mph 1024.7mb 46f 47f
6:48 3
mph
1024.6mb 46f 48f
6:36 5 7 mph 1024.5mb 46f 52f
6:30 5 9 mph 1024.5mb 46f 52f